createdAt,value
2019-02-23T00:02:09.708Z,49.70
2019-02-23T00:04:40.139Z,49.70
2019-02-23T00:07:10.532Z,49.70
2019-02-23T00:09:41.340Z,49.90
2019-02-23T00:12:11.751Z,50.00
2019-02-23T00:14:42.221Z,50.00
2019-02-23T00:17:12.933Z,50.10
2019-02-23T00:19:43.523Z,50.20
2019-02-23T00:22:14.053Z,50.20
2019-02-23T00:24:44.428Z,50.30
2019-02-23T00:27:15.486Z,50.40
2019-02-23T00:29:46.323Z,50.50
2019-02-23T00:32:16.738Z,50.60
2019-02-23T00:34:47.208Z,50.70
2019-02-23T00:37:17.612Z,50.80
2019-02-23T00:39:48.077Z,51.00
2019-02-23T00:42:18.520Z,51.70
2019-02-23T00:44:48.881Z,51.30
2019-02-23T00:47:19.261Z,51.50
2019-02-23T00:49:49.728Z,51.30
2019-02-23T00:52:20.213Z,51.10
2019-02-23T00:54:50.577Z,50.70
2019-02-23T00:57:20.977Z,50.60
2019-02-23T00:59:51.725Z,50.40
2019-02-23T01:02:22.231Z,50.30
2019-02-23T01:04:52.590Z,50.20
2019-02-23T01:07:23.245Z,50.20
2019-02-23T01:09:53.735Z,50.20
2019-02-23T01:12:24.099Z,50.10
2019-02-23T01:14:54.624Z,50.20
2019-02-23T01:17:25.531Z,50.10
2019-02-23T01:19:55.877Z,50.20
2019-02-23T01:22:26.317Z,50.10
2019-02-23T01:24:56.868Z,50.20
2019-02-23T01:27:27.299Z,50.20
2019-02-23T01:29:57.695Z,50.10
2019-02-23T01:32:28.191Z,50.10
2019-02-23T01:34:58.522Z,50.10
2019-02-23T01:37:28.941Z,50.10
2019-02-23T01:39:59.406Z,50.00
2019-02-23T01:42:30.354Z,50.00
2019-02-23T01:45:00.733Z,49.90
2019-02-23T01:47:31.110Z,49.80
2019-02-23T01:50:01.899Z,49.90
2019-02-23T01:52:32.341Z,49.70
2019-02-23T01:55:02.826Z,49.80
2019-02-23T01:57:33.261Z,49.90
2019-02-23T02:00:03.632Z,49.80
2019-02-23T02:02:34.405Z,49.50
2019-02-23T02:05:07.360Z,49.20
2019-02-23T02:07:37.808Z,49.00
2019-02-23T02:10:09.495Z,48.70
2019-02-23T02:12:40.043Z,48.70
2019-02-23T02:15:12.574Z,48.70
2019-02-23T02:17:42.948Z,48.60
2019-02-23T02:20:13.520Z,48.60
2019-02-23T02:22:43.992Z,48.50
2019-02-23T02:25:14.760Z,48.50
2019-02-23T02:27:45.577Z,48.40
2019-02-23T02:30:16.151Z,48.30
2019-02-23T02:32:46.509Z,48.30
2019-02-23T02:35:16.999Z,48.30
2019-02-23T02:37:47.456Z,48.30
2019-02-23T02:40:18.139Z,48.20
2019-02-23T02:42:50.423Z,48.10
2019-02-23T02:45:20.886Z,48.10
2019-02-23T02:47:51.383Z,48.10
2019-02-23T02:50:24.536Z,48.00
2019-02-23T02:52:53.660Z,47.80
2019-02-23T02:55:24.755Z,48.10
2019-02-23T02:57:56.460Z,47.30
2019-02-23T03:00:26.832Z,47.30
2019-02-23T03:02:57.364Z,47.30
2019-02-23T03:05:28.054Z,47.30
2019-02-23T03:07:58.517Z,47.30
2019-02-23T03:10:28.903Z,47.20
2019-02-23T03:12:59.433Z,47.20
2019-02-23T03:15:30.415Z,47.10
2019-02-23T03:18:00.942Z,47.10
2019-02-23T03:20:36.656Z,47.10
2019-02-23T03:23:03.142Z,47.10
2019-02-23T03:25:33.599Z,47.10
2019-02-23T03:28:04.038Z,47.00
2019-02-23T03:30:34.875Z,46.90
2019-02-23T03:33:05.307Z,46.70
2019-02-23T03:35:35.845Z,46.30
2019-02-23T03:38:06.291Z,46.20
2019-02-23T03:40:36.696Z,46.10
2019-02-23T03:43:07.570Z,46.30
2019-02-23T03:45:38.633Z,46.30
2019-02-23T03:48:09.071Z,46.30
2019-02-23T03:50:48.658Z,46.20
2019-02-23T03:53:11.444Z,46.20
2019-02-23T03:55:42.021Z,46.20
2019-02-23T03:58:12.385Z,46.20
2019-02-23T04:00:42.912Z,46.20
2019-02-23T04:03:13.536Z,46.20
2019-02-23T04:05:44.161Z,46.20
2019-02-23T04:08:14.564Z,46.10
2019-02-23T04:10:45.017Z,45.80
2019-02-23T04:13:34.729Z,45.70
2019-02-23T04:16:05.184Z,45.50
2019-02-23T04:18:35.545Z,45.50
2019-02-23T04:21:06.078Z,45.50
2019-02-23T04:23:36.679Z,45.60
2019-02-23T04:26:07.075Z,45.60
2019-02-23T04:28:37.977Z,45.50
2019-02-23T04:31:08.495Z,45.60
2019-02-23T04:33:38.820Z,45.50
2019-02-23T04:36:09.336Z,45.50
2019-02-23T04:38:39.777Z,45.50
2019-02-23T04:41:10.385Z,45.40
2019-02-23T04:43:43.914Z,45.20
2019-02-23T04:46:12.797Z,45.10
2019-02-23T04:48:43.236Z,44.80
2019-02-23T04:51:14.692Z,44.70
2019-02-23T04:53:46.736Z,44.80
2019-02-23T04:56:17.130Z,45.00
2019-02-23T04:58:47.580Z,44.90
2019-02-23T05:01:17.926Z,44.90
2019-02-23T05:03:48.334Z,44.90
2019-02-23T05:06:18.987Z,44.80
2019-02-23T05:08:49.445Z,44.90
2019-02-23T05:11:19.861Z,44.90
2019-02-23T05:13:50.245Z,44.80
2019-02-23T05:16:21.209Z,44.60
2019-02-23T05:18:51.706Z,44.50
2019-02-23T05:21:26.232Z,44.30
2019-02-23T05:23:53.950Z,44.20
2019-02-23T05:26:24.468Z,44.20
2019-02-23T05:28:54.909Z,44.30
2019-02-23T05:31:25.317Z,44.30
2019-02-23T05:33:55.798Z,44.30
2019-02-23T05:36:26.308Z,44.30
2019-02-23T05:38:56.818Z,44.30
2019-02-23T05:41:27.283Z,44.40
2019-02-23T05:43:59.808Z,44.30
2019-02-23T05:46:30.458Z,44.00
2019-02-23T05:49:01.015Z,43.90
2019-02-23T05:51:38.623Z,43.70
2019-02-23T05:54:03.684Z,43.70
2019-02-23T05:56:34.078Z,43.80
2019-02-23T05:59:04.948Z,43.90
2019-02-23T06:01:35.752Z,43.90
2019-02-23T06:04:06.204Z,43.80
2019-02-23T06:06:36.960Z,43.80
2019-02-23T06:09:07.577Z,43.80
2019-02-23T06:11:38.019Z,43.80
2019-02-23T06:14:08.698Z,43.80
2019-02-23T06:16:39.187Z,43.60
2019-02-23T06:19:09.629Z,43.50
2019-02-23T06:21:52.857Z,43.30
2019-02-23T06:24:11.861Z,43.20
2019-02-23T06:26:42.582Z,43.20
2019-02-23T06:29:13.022Z,43.30
2019-02-23T06:31:43.424Z,43.40
2019-02-23T06:34:16.518Z,43.40
2019-02-23T06:36:45.690Z,43.40
2019-02-23T06:39:16.111Z,43.40
2019-02-23T06:41:46.580Z,43.20
2019-02-23T06:44:17.333Z,43.20
2019-02-23T06:46:47.738Z,43.20
2019-02-23T06:49:18.278Z,43.00
2019-02-23T06:51:48.744Z,42.80
2019-02-23T06:54:19.274Z,42.80
2019-02-23T06:56:49.744Z,42.60
2019-02-23T06:59:20.282Z,42.80
2019-02-23T07:01:50.661Z,42.90
2019-02-23T07:04:21.027Z,42.90
2019-02-23T07:06:51.489Z,42.80
2019-02-23T07:09:22.124Z,42.90
2019-02-23T07:11:52.567Z,42.90
2019-02-23T07:14:23.023Z,42.90
2019-02-23T07:16:53.388Z,42.70
2019-02-23T07:19:23.776Z,42.60
2019-02-23T07:21:54.341Z,42.40
2019-02-23T07:24:24.873Z,42.30
2019-02-23T07:26:55.183Z,42.30
2019-02-23T07:29:25.872Z,42.20
2019-02-23T07:31:56.347Z,42.30
2019-02-23T07:34:26.718Z,42.40
2019-02-23T07:36:57.159Z,42.40
2019-02-23T07:39:27.662Z,42.50
2019-02-23T10:32:05.335Z,42.20
2019-02-23T10:34:36.169Z,42.60
2019-02-23T10:37:06.856Z,42.00
2019-02-23T10:39:44.555Z,42.00
2019-02-23T10:42:15.158Z,42.00
2019-02-23T10:44:45.877Z,42.00
2019-02-23T10:47:23.139Z,41.70
2019-02-23T10:49:54.069Z,41.70
2019-02-23T10:52:24.427Z,41.70
2019-02-23T10:55:01.945Z,41.60
2019-02-23T10:57:32.735Z,41.60
2019-02-23T11:00:03.373Z,41.40
2019-02-23T11:02:40.523Z,41.40
2019-02-23T11:05:11.899Z,41.50
2019-02-23T11:07:42.590Z,41.40
2019-02-23T11:10:19.832Z,41.30
2019-02-23T11:12:50.753Z,41.30
2019-02-23T11:15:22.073Z,41.20
2019-02-23T11:17:59.641Z,41.20
2019-02-23T11:20:30.836Z,41.20
2019-02-23T11:23:01.292Z,41.50
2019-02-23T11:25:38.833Z,41.10
2019-02-23T11:28:09.566Z,41.70
2019-02-23T11:30:59.320Z,41.00
2019-02-23T11:33:36.374Z,41.00
2019-02-23T11:36:14.433Z,41.00
2019-02-23T11:38:45.496Z,41.00
2019-02-23T11:41:15.916Z,41.00
2019-02-23T11:43:53.739Z,40.90
2019-02-23T11:46:24.207Z,40.80
2019-02-23T11:48:55.021Z,40.80
2019-02-23T11:51:32.477Z,40.80
2019-02-23T11:54:03.239Z,40.80
2019-02-23T11:56:34.946Z,40.70
2019-02-23T11:59:12.978Z,40.70
2019-02-23T12:01:43.613Z,40.70
2019-02-23T12:04:14.379Z,40.70
2019-02-23T12:06:52.365Z,40.60
2019-02-23T12:09:23.183Z,40.60
2019-02-23T12:11:53.613Z,40.50
2019-02-23T12:14:30.954Z,40.60
2019-02-23T12:17:01.337Z,40.50
2019-02-23T12:19:31.955Z,40.50
2019-02-23T12:22:12.272Z,40.40
2019-02-23T12:24:41.762Z,40.40
2019-02-23T12:27:12.162Z,40.40
2019-02-23T12:29:49.956Z,40.30
2019-02-23T12:32:27.088Z,40.40
2019-02-23T12:35:10.495Z,40.30
2019-02-23T12:37:40.901Z,40.30
2019-02-23T12:40:12.289Z,40.30
2019-02-23T12:42:50.215Z,40.20
2019-02-23T12:45:20.679Z,40.20
2019-02-23T12:47:51.376Z,40.20
2019-02-23T12:50:28.779Z,40.20
2019-02-23T12:52:59.839Z,40.30
2019-02-23T12:55:30.692Z,40.20
2019-02-23T12:58:08.020Z,40.20
2019-02-23T13:00:38.629Z,40.20
2019-02-23T13:03:09.057Z,40.10
2019-02-23T13:05:46.762Z,40.10
2019-02-23T13:08:17.585Z,40.00
2019-02-23T13:10:48.958Z,40.10
2019-02-23T13:13:40.374Z,40.20
2019-02-23T13:16:22.521Z,40.10
2019-02-23T13:19:17.580Z,40.00
2019-02-23T13:22:11.847Z,40.00
2019-02-23T13:24:54.690Z,39.90
2019-02-23T13:27:36.419Z,39.90
2019-02-23T13:30:22.353Z,40.60
2019-02-23T13:33:08.011Z,39.80
2019-02-23T13:36:10.510Z,39.90
2019-02-23T13:38:52.824Z,39.90
2019-02-23T13:41:41.254Z,39.90
2019-02-23T13:44:19.286Z,39.90
2019-02-23T13:47:10.962Z,39.80
2019-02-23T13:49:46.721Z,40.00
2019-02-23T13:52:43.162Z,39.90
2019-02-23T13:55:50.448Z,39.80
2019-02-23T13:58:29.834Z,40.50
2019-02-23T14:01:14.934Z,39.80
2019-02-23T14:04:09.592Z,39.80
2019-02-23T14:06:54.645Z,39.80
2019-02-23T14:09:45.768Z,39.70
2019-02-23T14:12:27.468Z,39.80
2019-02-23T14:15:06.565Z,39.70
2019-02-23T14:17:45.470Z,39.70
2019-02-23T14:20:34.579Z,39.70
2019-02-23T14:23:28.911Z,39.70
2019-02-23T14:26:17.618Z,40.20
2019-02-23T14:29:02.799Z,39.60
2019-02-23T14:32:00.613Z,39.60
2019-02-23T14:34:56.518Z,39.60
2019-02-23T14:37:58.316Z,39.60
2019-02-23T14:40:43.579Z,39.40
2019-02-23T14:43:31.726Z,39.50
2019-02-23T14:46:07.701Z,39.40
2019-02-23T14:49:07.970Z,39.50
2019-02-23T14:51:52.994Z,39.50
2019-02-23T14:54:35.717Z,39.50
2019-02-23T14:57:11.765Z,39.40
2019-02-23T15:00:06.122Z,39.40
2019-02-23T15:02:56.064Z,39.40
2019-02-23T15:06:07.502Z,39.40
2019-02-23T15:08:43.407Z,39.40
2019-02-23T15:11:38.347Z,39.40
2019-02-23T15:14:17.165Z,39.40
2019-02-23T15:17:32.366Z,39.50
2019-02-23T15:20:14.627Z,39.40
2019-02-23T15:23:18.557Z,39.40
2019-02-23T15:26:14.146Z,39.40
2019-02-23T15:29:17.955Z,39.50
2019-02-23T15:32:06.100Z,39.50
2019-02-23T15:35:12.373Z,39.40
2019-02-23T15:37:57.661Z,39.50
2019-02-23T15:40:52.700Z,39.50
2019-02-23T15:43:25.843Z,39.50
2019-02-23T15:46:14.815Z,39.50
2019-02-23T15:48:59.882Z,39.50
2019-02-23T15:51:36.867Z,39.50
2019-02-23T15:54:07.317Z,39.60
2019-02-23T15:56:38.064Z,39.60
2019-02-23T15:59:16.033Z,39.60
2019-02-23T16:01:46.456Z,39.60
2019-02-23T16:04:17.754Z,39.70
2019-02-23T16:06:54.418Z,39.60
2019-02-23T16:09:24.937Z,39.70
2019-02-23T16:11:55.720Z,39.70
2019-02-23T16:14:33.021Z,39.80
2019-02-23T16:17:03.678Z,39.70
2019-02-23T16:19:34.133Z,39.80
2019-02-23T16:22:11.773Z,39.80
2019-02-23T16:24:42.188Z,39.80
2019-02-23T16:27:12.576Z,39.80
2019-02-23T16:29:50.004Z,39.90
2019-02-23T16:32:22.019Z,39.90
2019-02-23T16:35:05.718Z,40.00
2019-02-23T16:37:43.197Z,39.90
2019-02-23T16:40:20.562Z,39.90
2019-02-23T16:42:57.691Z,40.00
2019-02-23T16:45:34.773Z,40.00
2019-02-23T16:48:05.592Z,40.00
2019-02-23T16:50:35.960Z,40.00
2019-02-23T16:53:13.246Z,40.00
2019-02-23T16:55:50.804Z,40.10
2019-02-23T16:58:22.724Z,40.10
2019-02-23T17:00:53.772Z,40.20
2019-02-23T17:03:24.230Z,40.30
2019-02-23T17:06:01.316Z,40.30
2019-02-23T17:08:31.792Z,40.50
2019-02-23T17:11:02.535Z,40.50
2019-02-23T17:13:38.951Z,40.60
2019-02-23T17:16:09.447Z,40.60
2019-02-23T17:18:39.888Z,40.60
2019-02-23T17:21:17.514Z,40.60
2019-02-23T17:23:47.885Z,40.60
2019-02-23T17:26:18.328Z,40.60
2019-02-23T17:28:55.366Z,40.60
2019-02-23T17:31:25.781Z,40.70
2019-02-23T17:34:10.270Z,40.80
2019-02-23T17:36:47.312Z,40.80
2019-02-23T17:39:24.074Z,40.70
2019-02-23T17:41:54.444Z,40.70
2019-02-23T17:44:38.494Z,40.90
2019-02-23T17:47:08.922Z,40.90
2019-02-23T17:49:39.828Z,41.00
2019-02-23T17:52:17.336Z,41.10
2019-02-23T17:54:47.815Z,41.30
2019-02-23T17:57:18.475Z,41.30
2019-02-23T17:59:55.381Z,41.40
2019-02-23T18:02:25.839Z,41.70
2019-02-23T18:04:56.583Z,41.70
2019-02-23T18:07:33.429Z,41.60
2019-02-23T18:10:05.309Z,41.40
2019-02-23T18:12:35.785Z,41.40
2019-02-23T18:15:15.331Z,41.40
2019-02-23T18:17:45.806Z,41.40
2019-02-23T18:20:16.342Z,41.60
2019-02-23T18:22:53.184Z,41.80
2019-02-23T18:25:23.576Z,42.10
2019-02-23T18:27:54.030Z,42.20
2019-02-23T18:30:31.085Z,42.50
2019-02-23T18:33:01.446Z,42.70
2019-02-23T18:35:45.022Z,42.70
2019-02-23T18:38:21.565Z,42.80
2019-02-23T18:40:58.349Z,42.80
2019-02-23T18:43:28.811Z,42.90
2019-02-23T18:46:12.358Z,42.90
2019-02-23T18:48:42.696Z,42.90
2019-02-23T18:51:13.417Z,42.80
2019-02-23T18:53:50.146Z,42.80
2019-02-23T18:56:20.583Z,42.80
2019-02-23T18:58:51.060Z,42.90
2019-02-23T19:01:28.538Z,42.90
2019-02-23T19:03:59.017Z,42.90
2019-02-23T19:06:29.451Z,43.80
2019-02-23T19:09:07.037Z,43.10
2019-02-23T19:11:37.420Z,43.30
2019-02-23T19:14:07.872Z,43.60
2019-02-23T19:16:45.432Z,43.50
2019-02-23T19:19:15.899Z,43.50
2019-02-23T19:21:46.449Z,43.60
2019-02-23T19:24:23.131Z,43.90
2019-02-23T19:26:53.504Z,43.90
2019-02-23T19:29:24.029Z,43.90
2019-02-23T19:32:01.273Z,43.90
2019-02-23T19:34:31.633Z,43.90
2019-02-23T19:37:16.144Z,43.90
2019-02-23T19:39:53.046Z,44.10
2019-02-23T19:42:30.237Z,44.10
2019-02-23T19:45:00.705Z,44.20
2019-02-23T19:47:44.203Z,44.20
2019-02-23T19:50:20.019Z,44.20
2019-02-23T19:52:57.122Z,44.20
2019-02-23T19:55:27.577Z,44.40
2019-02-23T19:57:57.919Z,44.70
2019-02-23T20:00:34.761Z,44.70
2019-02-23T20:03:05.194Z,44.70
2019-02-23T20:05:36.178Z,44.50
2019-02-23T20:08:13.180Z,44.70
2019-02-23T20:10:43.639Z,45.00
2019-02-23T20:13:14.053Z,45.10
2019-02-23T20:15:51.081Z,45.10
2019-02-23T20:18:21.528Z,45.10
2019-02-23T20:20:52.006Z,45.10
2019-02-23T20:23:28.473Z,45.10
2019-02-23T20:25:58.929Z,45.30
2019-02-23T20:28:29.548Z,45.40
2019-02-23T20:31:06.535Z,45.50
2019-02-23T20:33:36.973Z,45.60
2019-02-23T20:36:20.907Z,45.70
2019-02-23T20:38:57.868Z,45.90
2019-02-23T20:41:34.710Z,45.90
2019-02-23T20:44:05.542Z,46.10
2019-02-23T20:46:35.921Z,46.80
2019-02-23T20:49:19.243Z,46.30
2019-02-23T20:51:49.780Z,46.30
2019-02-23T20:54:20.233Z,46.20
2019-02-23T20:57:04.133Z,46.20
2019-02-23T20:59:28.770Z,46.40
2019-02-23T21:01:59.258Z,46.50
2019-02-23T21:04:36.339Z,46.50
2019-02-23T21:07:06.692Z,46.70
2019-02-23T21:09:37.159Z,46.70
2019-02-23T21:12:13.833Z,46.70
2019-02-23T21:14:50.658Z,46.80
2019-02-23T21:17:27.737Z,46.80
2019-02-23T21:19:58.198Z,46.90
2019-02-23T21:22:28.561Z,46.80
2019-02-23T21:25:05.857Z,46.80
2019-02-23T21:27:36.314Z,46.70
2019-02-23T21:30:09.011Z,46.70
2019-02-23T21:32:45.902Z,46.80
2019-02-23T21:35:16.241Z,46.80
2019-02-23T21:38:05.424Z,46.90
2019-02-23T21:40:35.769Z,47.30
2019-02-23T21:43:06.226Z,47.60
2019-02-23T21:45:43.700Z,47.70
2019-02-23T21:48:14.065Z,47.50
2019-02-23T21:50:57.946Z,47.50
2019-02-23T21:53:28.406Z,48.00
2019-02-23T21:55:58.845Z,47.50
2019-02-23T21:58:35.657Z,47.40
2019-02-23T22:01:06.146Z,47.50
2019-02-23T22:03:37.727Z,47.40
2019-02-23T22:06:15.148Z,47.50
2019-02-23T22:08:45.596Z,47.40
2019-02-23T22:11:16.031Z,47.30
2019-02-23T22:13:53.197Z,47.20
2019-02-23T22:16:23.645Z,47.20
2019-02-23T22:18:54.127Z,47.20
2019-02-23T22:21:31.182Z,47.10
2019-02-23T22:24:01.628Z,47.10
2019-02-23T22:26:32.069Z,47.10
2019-02-23T22:29:09.124Z,47.10
2019-02-23T22:31:39.519Z,47.10
2019-02-23T22:34:09.953Z,47.50
2019-02-23T22:36:46.889Z,47.40
2019-02-23T22:39:24.274Z,47.50
2019-02-23T22:42:07.406Z,47.50
2019-02-23T22:44:37.837Z,47.60
2019-02-23T22:47:08.278Z,47.70
2019-02-23T22:49:45.113Z,47.70
2019-02-23T22:52:22.178Z,47.60
2019-02-23T22:54:59.058Z,47.50
2019-02-23T22:57:29.489Z,47.60
2019-02-23T22:59:59.842Z,47.50
2019-02-23T23:02:37.264Z,47.50
2019-02-23T23:05:07.828Z,47.50
2019-02-23T23:07:38.221Z,47.40
2019-02-23T23:10:15.868Z,47.40
2019-02-23T23:12:46.299Z,47.40
2019-02-23T23:15:16.649Z,47.40
2019-02-23T23:17:54.024Z,47.50
2019-02-23T23:20:24.482Z,47.50
2019-02-23T23:22:54.829Z,47.50
2019-02-23T23:25:32.108Z,47.60
2019-02-23T23:28:02.536Z,47.60
2019-02-23T23:30:32.897Z,47.60
2019-02-23T23:33:09.500Z,47.60
2019-02-23T23:35:39.961Z,47.70
2019-02-23T23:38:23.787Z,47.70
2019-02-23T23:41:00.682Z,47.80
2019-02-23T23:43:38.488Z,47.90
2019-02-23T23:46:08.848Z,47.90
2019-02-23T23:48:39.431Z,47.90
2019-02-23T23:51:16.950Z,47.70
2019-02-23T23:53:54.004Z,47.70
2019-02-23T23:56:31.400Z,47.70
2019-02-23T23:59:01.762Z,47.70
